sensor_id;sensor_type;location;lat;lon;timestamp;P1;durP1;ratioP1;P2;durP2;ratioP2
50165;SDS011;36071;48.140;11.516;2023-04-12T00:00:53;5.3;;;2.5;;
50165;SDS011;36071;48.140;11.516;2023-04-12T00:05:53;10.2;;;2.8;;
50165;SDS011;36071;48.140;11.516;2023-04-12T00:10:53;9.0;;;3.2;;
50165;SDS011;36071;48.140;11.516;2023-04-12T00:15:53;9.5;;;2.9;;
50165;SDS011;36071;48.140;11.516;2023-04-12T00:20:53;5.4;;;2.9;;
50165;SDS011;36071;48.140;11.516;2023-04-12T00:25:53;6.0;;;2.6;;
50165;SDS011;36071;48.140;11.516;2023-04-12T00:30:53;6.2;;;2.7;;
50165;SDS011;36071;48.140;11.516;2023-04-12T00:35:53;6.4;;;2.9;;
50165;SDS011;36071;48.140;11.516;2023-04-12T00:40:53;7.5;;;2.8;;
50165;SDS011;36071;48.140;11.516;2023-04-12T00:45:53;7.1;;;3.0;;
50165;SDS011;36071;48.140;11.516;2023-04-12T00:50:53;9.3;;;2.9;;
50165;SDS011;36071;48.140;11.516;2023-04-12T00:55:53;6.8;;;2.3;;
50165;SDS011;36071;48.140;11.516;2023-04-12T01:00:53;5.9;;;2.4;;
50165;SDS011;36071;48.140;11.516;2023-04-12T01:05:56;5.6;;;1.9;;
50165;SDS011;36071;48.140;11.516;2023-04-12T01:10:54;6.9;;;2.4;;
50165;SDS011;36071;48.140;11.516;2023-04-12T01:15:54;5.0;;;2.3;;
50165;SDS011;36071;48.140;11.516;2023-04-12T01:20:53;5.2;;;1.9;;
50165;SDS011;36071;48.140;11.516;2023-04-12T01:25:56;6.0;;;2.1;;
50165;SDS011;36071;48.140;11.516;2023-04-12T01:30:53;3.5;;;1.6;;
50165;SDS011;36071;48.140;11.516;2023-04-12T01:35:53;3.7;;;1.3;;
50165;SDS011;36071;48.140;11.516;2023-04-12T01:40:53;4.3;;;1.5;;
50165;SDS011;36071;48.140;11.516;2023-04-12T01:45:53;3.4;;;1.3;;
50165;SDS011;36071;48.140;11.516;2023-04-12T01:50:55;2.4;;;1.2;;
50165;SDS011;36071;48.140;11.516;2023-04-12T01:55:54;5.2;;;1.2;;
50165;SDS011;36071;48.140;11.516;2023-04-12T02:00:53;5.0;;;1.6;;
50165;SDS011;36071;48.140;11.516;2023-04-12T02:05:53;3.0;;;1.3;;
50165;SDS011;36071;48.140;11.516;2023-04-12T02:10:53;4.5;;;1.3;;
50165;SDS011;36071;48.140;11.516;2023-04-12T02:15:53;5.7;;;1.6;;
50165;SDS011;36071;48.140;11.516;2023-04-12T02:20:53;4.3;;;1.6;;
50165;SDS011;36071;48.140;11.516;2023-04-12T02:25:53;5.3;;;1.7;;
50165;SDS011;36071;48.140;11.516;2023-04-12T02:30:53;3.4;;;1.4;;
50165;SDS011;36071;48.140;11.516;2023-04-12T02:35:53;3.3;;;1.7;;
50165;SDS011;36071;48.140;11.516;2023-04-12T02:45:53;4.8;;;1.4;;
50165;SDS011;36071;48.140;11.516;2023-04-12T02:50:53;4.5;;;1.7;;
50165;SDS011;36071;48.140;11.516;2023-04-12T02:55:53;3.6;;;1.6;;
50165;SDS011;36071;48.140;11.516;2023-04-12T03:00:53;2.9;;;1.6;;
50165;SDS011;36071;48.140;11.516;2023-04-12T03:05:53;3.4;;;1.5;;
50165;SDS011;36071;48.140;11.516;2023-04-12T03:10:53;3.0;;;1.4;;
50165;SDS011;36071;48.140;11.516;2023-04-12T03:15:54;5.8;;;1.8;;
50165;SDS011;36071;48.140;11.516;2023-04-12T03:20:53;5.0;;;1.6;;
50165;SDS011;36071;48.140;11.516;2023-04-12T03:25:53;4.8;;;1.6;;
50165;SDS011;36071;48.140;11.516;2023-04-12T03:30:53;5.1;;;1.7;;
50165;SDS011;36071;48.140;11.516;2023-04-12T03:35:53;4.2;;;1.6;;
50165;SDS011;36071;48.140;11.516;2023-04-12T03:40:53;4.9;;;2.0;;
50165;SDS011;36071;48.140;11.516;2023-04-12T03:45:53;5.5;;;2.0;;
50165;SDS011;36071;48.140;11.516;2023-04-12T03:50:53;4.7;;;1.8;;
50165;SDS011;36071;48.140;11.516;2023-04-12T03:55:53;5.1;;;1.5;;
50165;SDS011;36071;48.140;11.516;2023-04-12T04:00:53;5.2;;;1.6;;
50165;SDS011;36071;48.140;11.516;2023-04-12T04:05:53;4.4;;;1.5;;
50165;SDS011;36071;48.140;11.516;2023-04-12T04:10:53;4.2;;;1.3;;
50165;SDS011;36071;48.140;11.516;2023-04-12T04:15:57;4.5;;;1.6;;
50165;SDS011;36071;48.140;11.516;2023-04-12T04:20:53;5.3;;;1.9;;
50165;SDS011;36071;48.140;11.516;2023-04-12T04:25:53;2.9;;;1.5;;
50165;SDS011;36071;48.140;11.516;2023-04-12T04:30:53;3.9;;;1.6;;
50165;SDS011;36071;48.140;11.516;2023-04-12T04:35:54;4.4;;;1.5;;
50165;SDS011;36071;48.140;11.516;2023-04-12T04:40:53;4.1;;;1.5;;
50165;SDS011;36071;48.140;11.516;2023-04-12T04:45:53;2.1;;;1.2;;
50165;SDS011;36071;48.140;11.516;2023-04-12T04:50:53;4.2;;;1.4;;
50165;SDS011;36071;48.140;11.516;2023-04-12T04:55:56;4.3;;;1.3;;
50165;SDS011;36071;48.140;11.516;2023-04-12T05:00:55;5.1;;;1.9;;
50165;SDS011;36071;48.140;11.516;2023-04-12T05:05:53;4.2;;;1.4;;
50165;SDS011;36071;48.140;11.516;2023-04-12T05:10:54;2.9;;;1.6;;
50165;SDS011;36071;48.140;11.516;2023-04-12T05:15:53;2.9;;;1.4;;
50165;SDS011;36071;48.140;11.516;2023-04-12T05:20:53;8.4;;;2.0;;
50165;SDS011;36071;48.140;11.516;2023-04-12T05:25:53;6.7;;;2.0;;
50165;SDS011;36071;48.140;11.516;2023-04-12T05:30:53;5.9;;;2.5;;
50165;SDS011;36071;48.140;11.516;2023-04-12T05:35:53;8.3;;;2.4;;
50165;SDS011;36071;48.140;11.516;2023-04-12T05:40:53;10.5;;;2.4;;
50165;SDS011;36071;48.140;11.516;2023-04-12T05:45:53;4.5;;;2.2;;
50165;SDS011;36071;48.140;11.516;2023-04-12T05:50:53;6.7;;;1.9;;
50165;SDS011;36071;48.140;11.516;2023-04-12T05:55:53;5.5;;;2.0;;
50165;SDS011;36071;48.140;11.516;2023-04-12T06:00:53;4.4;;;1.8;;
50165;SDS011;36071;48.140;11.516;2023-04-12T06:05:53;4.9;;;2.1;;
50165;SDS011;36071;48.140;11.516;2023-04-12T06:10:53;7.4;;;1.9;;
50165;SDS011;36071;48.140;11.516;2023-04-12T06:15:53;5.1;;;1.7;;
50165;SDS011;36071;48.140;11.516;2023-04-12T06:20:53;4.8;;;1.5;;
50165;SDS011;36071;48.140;11.516;2023-04-12T06:25:55;4.0;;;1.7;;
50165;SDS011;36071;48.140;11.516;2023-04-12T06:30:53;7.1;;;1.9;;
50165;SDS011;36071;48.140;11.516;2023-04-12T06:35:53;4.4;;;1.9;;
50165;SDS011;36071;48.140;11.516;2023-04-12T06:40:55;5.6;;;1.8;;
50165;SDS011;36071;48.140;11.516;2023-04-12T06:45:53;4.5;;;1.5;;
50165;SDS011;36071;48.140;11.516;2023-04-12T06:50:53;5.7;;;1.7;;
50165;SDS011;36071;48.140;11.516;2023-04-12T06:55:53;6.0;;;1.8;;
50165;SDS011;36071;48.140;11.516;2023-04-12T07:00:53;4.6;;;1.8;;
50165;SDS011;36071;48.140;11.516;2023-04-12T07:05:53;3.1;;;1.7;;
50165;SDS011;36071;48.140;11.516;2023-04-12T07:10:53;6.1;;;2.0;;
50165;SDS011;36071;48.140;11.516;2023-04-12T07:15:53;5.4;;;2.3;;
50165;SDS011;36071;48.140;11.516;2023-04-12T07:20:53;6.7;;;2.2;;
50165;SDS011;36071;48.140;11.516;2023-04-12T07:25:57;5.0;;;1.9;;
50165;SDS011;36071;48.140;11.516;2023-04-12T07:30:53;4.6;;;1.7;;
50165;SDS011;36071;48.140;11.516;2023-04-12T07:35:53;4.4;;;1.9;;
50165;SDS011;36071;48.140;11.516;2023-04-12T07:40:53;6.3;;;2.1;;
50165;SDS011;36071;48.140;11.516;2023-04-12T07:45:53;6.5;;;2.1;;
50165;SDS011;36071;48.140;11.516;2023-04-12T07:50:53;4.8;;;2.1;;
50165;SDS011;36071;48.140;11.516;2023-04-12T07:55:53;6.9;;;2.0;;
50165;SDS011;36071;48.140;11.516;2023-04-12T08:00:53;4.5;;;1.8;;
50165;SDS011;36071;48.140;11.516;2023-04-12T08:05:53;3.6;;;2.0;;
50165;SDS011;36071;48.140;11.516;2023-04-12T08:10:53;4.3;;;1.9;;
50165;SDS011;36071;48.140;11.516;2023-04-12T08:15:53;5.6;;;2.1;;
50165;SDS011;36071;48.140;11.516;2023-04-12T08:20:53;6.4;;;1.7;;
50165;SDS011;36071;48.140;11.516;2023-04-12T08:25:55;6.5;;;2.3;;
50165;SDS011;36071;48.140;11.516;2023-04-12T08:30:53;6.0;;;2.3;;
50165;SDS011;36071;48.140;11.516;2023-04-12T08:35:53;5.2;;;1.8;;
50165;SDS011;36071;48.140;11.516;2023-04-12T08:40:53;3.8;;;1.8;;
50165;SDS011;36071;48.140;11.516;2023-04-12T08:45:53;2.5;;;1.5;;
50165;SDS011;36071;48.140;11.516;2023-04-12T08:50:53;2.5;;;1.6;;
50165;SDS011;36071;48.140;11.516;2023-04-12T08:55:53;6.1;;;1.4;;
50165;SDS011;36071;48.140;11.516;2023-04-12T09:00:53;5.2;;;1.8;;
50165;SDS011;36071;48.140;11.516;2023-04-12T09:05:53;3.6;;;1.7;;
50165;SDS011;36071;48.140;11.516;2023-04-12T09:10:53;5.1;;;1.7;;
50165;SDS011;36071;48.140;11.516;2023-04-12T09:15:53;5.0;;;2.0;;
50165;SDS011;36071;48.140;11.516;2023-04-12T09:21:04;3.2;;;1.9;;
50165;SDS011;36071;48.140;11.516;2023-04-12T09:25:53;4.9;;;2.0;;
50165;SDS011;36071;48.140;11.516;2023-04-12T09:30:54;5.0;;;2.5;;
50165;SDS011;36071;48.140;11.516;2023-04-12T09:35:53;4.5;;;1.8;;
50165;SDS011;36071;48.140;11.516;2023-04-12T09:40:53;5.8;;;1.8;;
50165;SDS011;36071;48.140;11.516;2023-04-12T09:45:53;3.0;;;1.6;;
50165;SDS011;36071;48.140;11.516;2023-04-12T09:50:57;3.2;;;1.7;;
50165;SDS011;36071;48.140;11.516;2023-04-12T09:55:53;3.9;;;1.5;;
50165;SDS011;36071;48.140;11.516;2023-04-12T10:00:53;3.3;;;1.3;;
50165;SDS011;36071;48.140;11.516;2023-04-12T10:05:55;4.4;;;1.3;;
50165;SDS011;36071;48.140;11.516;2023-04-12T10:10:53;1.9;;;1.2;;
50165;SDS011;36071;48.140;11.516;2023-04-12T10:15:53;3.5;;;1.3;;
50165;SDS011;36071;48.140;11.516;2023-04-12T10:20:53;2.5;;;1.2;;
50165;SDS011;36071;48.140;11.516;2023-04-12T10:25:53;1.6;;;1.0;;
50165;SDS011;36071;48.140;11.516;2023-04-12T10:30:55;2.1;;;1.0;;
50165;SDS011;36071;48.140;11.516;2023-04-12T10:35:54;1.8;;;1.1;;
50165;SDS011;36071;48.140;11.516;2023-04-12T10:41:10;2.9;;;0.9;;
50165;SDS011;36071;48.140;11.516;2023-04-12T10:45:53;2.7;;;1.1;;
50165;SDS011;36071;48.140;11.516;2023-04-12T10:51:05;2.9;;;1.0;;
50165;SDS011;36071;48.140;11.516;2023-04-12T10:55:53;1.6;;;0.7;;
50165;SDS011;36071;48.140;11.516;2023-04-12T11:01:09;2.1;;;1.2;;
50165;SDS011;36071;48.140;11.516;2023-04-12T11:05:57;0.8;;;0.7;;
50165;SDS011;36071;48.140;11.516;2023-04-12T11:10:58;2.9;;;1.0;;
50165;SDS011;36071;48.140;11.516;2023-04-12T11:15:55;3.2;;;1.0;;
50165;SDS011;36071;48.140;11.516;2023-04-12T11:20:53;1.7;;;0.9;;
50165;SDS011;36071;48.140;11.516;2023-04-12T11:25:53;2.2;;;1.0;;
50165;SDS011;36071;48.140;11.516;2023-04-12T11:30:54;2.6;;;1.2;;
50165;SDS011;36071;48.140;11.516;2023-04-12T11:35:53;5.0;;;1.5;;
50165;SDS011;36071;48.140;11.516;2023-04-12T11:40:54;1.9;;;1.0;;
50165;SDS011;36071;48.140;11.516;2023-04-12T11:45:55;2.5;;;1.1;;
50165;SDS011;36071;48.140;11.516;2023-04-12T11:50:53;2.9;;;1.2;;
50165;SDS011;36071;48.140;11.516;2023-04-12T11:55:53;1.0;;;0.9;;
50165;SDS011;36071;48.140;11.516;2023-04-12T12:00:53;3.2;;;1.6;;
50165;SDS011;36071;48.140;11.516;2023-04-12T12:05:55;1.7;;;1.2;;
50165;SDS011;36071;48.140;11.516;2023-04-12T12:10:53;2.8;;;1.2;;
50165;SDS011;36071;48.140;11.516;2023-04-12T12:15:53;4.0;;;1.7;;
50165;SDS011;36071;48.140;11.516;2023-04-12T12:20:53;3.4;;;1.6;;
50165;SDS011;36071;48.140;11.516;2023-04-12T12:25:55;3.3;;;1.4;;
50165;SDS011;36071;48.140;11.516;2023-04-12T12:30:53;2.5;;;1.2;;
50165;SDS011;36071;48.140;11.516;2023-04-12T12:35:54;1.7;;;1.2;;
50165;SDS011;36071;48.140;11.516;2023-04-12T12:40:53;4.6;;;1.4;;
50165;SDS011;36071;48.140;11.516;2023-04-12T12:45:53;2.8;;;1.3;;
50165;SDS011;36071;48.140;11.516;2023-04-12T12:50:53;3.2;;;1.0;;
50165;SDS011;36071;48.140;11.516;2023-04-12T12:55:53;1.8;;;0.9;;
50165;SDS011;36071;48.140;11.516;2023-04-12T13:00:53;2.2;;;1.2;;
50165;SDS011;36071;48.140;11.516;2023-04-12T13:05:53;2.6;;;1.3;;
50165;SDS011;36071;48.140;11.516;2023-04-12T13:10:53;2.8;;;1.1;;
50165;SDS011;36071;48.140;11.516;2023-04-12T13:15:53;3.8;;;1.0;;
50165;SDS011;36071;48.140;11.516;2023-04-12T13:20:53;1.1;;;0.9;;
50165;SDS011;36071;48.140;11.516;2023-04-12T13:25:53;1.8;;;0.8;;
50165;SDS011;36071;48.140;11.516;2023-04-12T13:30:54;2.5;;;1.0;;
50165;SDS011;36071;48.140;11.516;2023-04-12T13:35:53;1.8;;;0.8;;
50165;SDS011;36071;48.140;11.516;2023-04-12T13:40:53;2.3;;;0.9;;
50165;SDS011;36071;48.140;11.516;2023-04-12T13:45:53;1.3;;;0.9;;
50165;SDS011;36071;48.140;11.516;2023-04-12T13:50:53;3.3;;;1.3;;
50165;SDS011;36071;48.140;11.516;2023-04-12T13:55:53;3.7;;;1.4;;
50165;SDS011;36071;48.140;11.516;2023-04-12T14:00:53;1.8;;;0.9;;
50165;SDS011;36071;48.140;11.516;2023-04-12T14:05:53;3.3;;;1.0;;
50165;SDS011;36071;48.140;11.516;2023-04-12T14:10:53;2.5;;;1.1;;
50165;SDS011;36071;48.140;11.516;2023-04-12T14:15:53;2.7;;;1.3;;
50165;SDS011;36071;48.140;11.516;2023-04-12T14:20:53;3.2;;;1.4;;
50165;SDS011;36071;48.140;11.516;2023-04-12T14:25:53;3.1;;;1.0;;
50165;SDS011;36071;48.140;11.516;2023-04-12T14:30:53;2.3;;;1.1;;
50165;SDS011;36071;48.140;11.516;2023-04-12T14:35:54;3.3;;;1.3;;
50165;SDS011;36071;48.140;11.516;2023-04-12T14:40:53;2.6;;;1.1;;
50165;SDS011;36071;48.140;11.516;2023-04-12T14:45:53;3.3;;;1.2;;
50165;SDS011;36071;48.140;11.516;2023-04-12T14:50:53;4.8;;;1.1;;
50165;SDS011;36071;48.140;11.516;2023-04-12T14:55:53;1.6;;;0.8;;
50165;SDS011;36071;48.140;11.516;2023-04-12T15:00:53;4.0;;;1.4;;
50165;SDS011;36071;48.140;11.516;2023-04-12T15:05:53;2.3;;;0.9;;
50165;SDS011;36071;48.140;11.516;2023-04-12T15:10:53;4.7;;;1.3;;
50165;SDS011;36071;48.140;11.516;2023-04-12T15:15:53;2.5;;;1.0;;
50165;SDS011;36071;48.140;11.516;2023-04-12T15:20:53;2.6;;;0.9;;
50165;SDS011;36071;48.140;11.516;2023-04-12T15:25:57;1.8;;;1.2;;
50165;SDS011;36071;48.140;11.516;2023-04-12T15:30:53;2.0;;;0.9;;
50165;SDS011;36071;48.140;11.516;2023-04-12T15:35:53;4.2;;;1.0;;
50165;SDS011;36071;48.140;11.516;2023-04-12T15:40:53;4.1;;;1.4;;
50165;SDS011;36071;48.140;11.516;2023-04-12T15:45:53;2.9;;;1.1;;
50165;SDS011;36071;48.140;11.516;2023-04-12T15:50:53;2.4;;;0.9;;
50165;SDS011;36071;48.140;11.516;2023-04-12T15:55:53;2.0;;;1.2;;
50165;SDS011;36071;48.140;11.516;2023-04-12T16:00:53;4.3;;;1.0;;
50165;SDS011;36071;48.140;11.516;2023-04-12T16:05:53;3.3;;;1.2;;
50165;SDS011;36071;48.140;11.516;2023-04-12T16:10:53;3.8;;;1.1;;
50165;SDS011;36071;48.140;11.516;2023-04-12T16:15:53;2.2;;;1.2;;
50165;SDS011;36071;48.140;11.516;2023-04-12T16:20:53;2.7;;;0.9;;
50165;SDS011;36071;48.140;11.516;2023-04-12T16:25:53;4.2;;;1.5;;
50165;SDS011;36071;48.140;11.516;2023-04-12T16:35:53;2.8;;;1.4;;
50165;SDS011;36071;48.140;11.516;2023-04-12T16:40:53;2.1;;;1.2;;
50165;SDS011;36071;48.140;11.516;2023-04-12T16:45:53;2.7;;;1.3;;
50165;SDS011;36071;48.140;11.516;2023-04-12T16:50:53;2.6;;;1.2;;
50165;SDS011;36071;48.140;11.516;2023-04-12T16:55:53;3.4;;;2.1;;
50165;SDS011;36071;48.140;11.516;2023-04-12T17:00:53;3.3;;;1.0;;
50165;SDS011;36071;48.140;11.516;2023-04-12T17:05:53;5.0;;;1.1;;
50165;SDS011;36071;48.140;11.516;2023-04-12T17:10:53;3.4;;;1.5;;
50165;SDS011;36071;48.140;11.516;2023-04-12T17:15:53;1.9;;;1.1;;
50165;SDS011;36071;48.140;11.516;2023-04-12T17:20:53;3.1;;;1.1;;
50165;SDS011;36071;48.140;11.516;2023-04-12T17:25:53;4.8;;;1.1;;
50165;SDS011;36071;48.140;11.516;2023-04-12T17:30:54;2.2;;;0.9;;
50165;SDS011;36071;48.140;11.516;2023-04-12T17:35:53;2.8;;;0.9;;
50165;SDS011;36071;48.140;11.516;2023-04-12T17:40:53;2.1;;;0.8;;
50165;SDS011;36071;48.140;11.516;2023-04-12T17:45:53;3.1;;;1.2;;
50165;SDS011;36071;48.140;11.516;2023-04-12T17:50:53;1.6;;;0.9;;
50165;SDS011;36071;48.140;11.516;2023-04-12T17:55:53;2.6;;;1.0;;
50165;SDS011;36071;48.140;11.516;2023-04-12T18:00:53;2.0;;;0.9;;
50165;SDS011;36071;48.140;11.516;2023-04-12T18:05:53;2.1;;;0.9;;
50165;SDS011;36071;48.140;11.516;2023-04-12T18:10:53;2.6;;;0.9;;
50165;SDS011;36071;48.140;11.516;2023-04-12T18:15:53;2.6;;;1.1;;
50165;SDS011;36071;48.140;11.516;2023-04-12T18:20:53;1.5;;;0.9;;
50165;SDS011;36071;48.140;11.516;2023-04-12T18:25:53;2.0;;;0.9;;
50165;SDS011;36071;48.140;11.516;2023-04-12T18:30:53;1.8;;;1.0;;
50165;SDS011;36071;48.140;11.516;2023-04-12T18:35:53;3.4;;;1.1;;
50165;SDS011;36071;48.140;11.516;2023-04-12T18:40:53;2.9;;;1.1;;
50165;SDS011;36071;48.140;11.516;2023-04-12T18:45:53;2.7;;;1.3;;
50165;SDS011;36071;48.140;11.516;2023-04-12T18:50:53;5.7;;;1.3;;
50165;SDS011;36071;48.140;11.516;2023-04-12T18:56:00;2.4;;;1.2;;
50165;SDS011;36071;48.140;11.516;2023-04-12T19:00:53;3.6;;;1.2;;
50165;SDS011;36071;48.140;11.516;2023-04-12T19:05:54;2.5;;;1.2;;
50165;SDS011;36071;48.140;11.516;2023-04-12T19:10:53;2.8;;;1.0;;
50165;SDS011;36071;48.140;11.516;2023-04-12T19:15:53;2.5;;;1.4;;
50165;SDS011;36071;48.140;11.516;2023-04-12T19:20:53;2.4;;;1.0;;
50165;SDS011;36071;48.140;11.516;2023-04-12T19:25:53;2.3;;;1.1;;
50165;SDS011;36071;48.140;11.516;2023-04-12T19:30:53;2.5;;;1.1;;
50165;SDS011;36071;48.140;11.516;2023-04-12T19:35:53;2.1;;;1.2;;
50165;SDS011;36071;48.140;11.516;2023-04-12T19:40:53;2.2;;;1.1;;
50165;SDS011;36071;48.140;11.516;2023-04-12T19:45:53;2.1;;;0.9;;
50165;SDS011;36071;48.140;11.516;2023-04-12T19:50:53;2.6;;;0.9;;
50165;SDS011;36071;48.140;11.516;2023-04-12T19:55:55;2.3;;;1.0;;
50165;SDS011;36071;48.140;11.516;2023-04-12T20:00:53;3.9;;;1.2;;
50165;SDS011;36071;48.140;11.516;2023-04-12T20:05:53;1.8;;;1.1;;
50165;SDS011;36071;48.140;11.516;2023-04-12T20:10:53;2.7;;;1.2;;
50165;SDS011;36071;48.140;11.516;2023-04-12T20:15:53;3.6;;;1.1;;
50165;SDS011;36071;48.140;11.516;2023-04-12T20:25:53;1.9;;;0.8;;
50165;SDS011;36071;48.140;11.516;2023-04-12T20:30:53;3.8;;;1.1;;
50165;SDS011;36071;48.140;11.516;2023-04-12T20:35:53;1.7;;;1.0;;
50165;SDS011;36071;48.140;11.516;2023-04-12T20:40:53;1.8;;;0.9;;
50165;SDS011;36071;48.140;11.516;2023-04-12T20:45:53;2.4;;;1.4;;
50165;SDS011;36071;48.140;11.516;2023-04-12T20:50:53;2.1;;;1.0;;
50165;SDS011;36071;48.140;11.516;2023-04-12T20:55:53;1.6;;;0.8;;
50165;SDS011;36071;48.140;11.516;2023-04-12T21:00:53;2.3;;;0.9;;
50165;SDS011;36071;48.140;11.516;2023-04-12T21:05:53;3.8;;;0.9;;
50165;SDS011;36071;48.140;11.516;2023-04-12T21:10:53;2.1;;;1.3;;
50165;SDS011;36071;48.140;11.516;2023-04-12T21:15:53;2.1;;;0.9;;
50165;SDS011;36071;48.140;11.516;2023-04-12T21:20:56;2.2;;;0.9;;
50165;SDS011;36071;48.140;11.516;2023-04-12T21:25:53;3.2;;;1.4;;
50165;SDS011;36071;48.140;11.516;2023-04-12T21:30:53;1.8;;;0.7;;
50165;SDS011;36071;48.140;11.516;2023-04-12T21:35:53;3.4;;;0.8;;
50165;SDS011;36071;48.140;11.516;2023-04-12T21:40:53;2.1;;;0.8;;
50165;SDS011;36071;48.140;11.516;2023-04-12T21:45:55;1.6;;;0.8;;
50165;SDS011;36071;48.140;11.516;2023-04-12T21:50:53;1.9;;;0.9;;
50165;SDS011;36071;48.140;11.516;2023-04-12T21:55:53;3.7;;;0.7;;
50165;SDS011;36071;48.140;11.516;2023-04-12T22:00:53;1.4;;;0.8;;
50165;SDS011;36071;48.140;11.516;2023-04-12T22:05:53;0.8;;;0.5;;
50165;SDS011;36071;48.140;11.516;2023-04-12T22:10:53;1.3;;;0.7;;
50165;SDS011;36071;48.140;11.516;2023-04-12T22:15:53;1.7;;;0.5;;
50165;SDS011;36071;48.140;11.516;2023-04-12T22:20:53;2.8;;;0.7;;
50165;SDS011;36071;48.140;11.516;2023-04-12T22:25:53;0.8;;;0.6;;
50165;SDS011;36071;48.140;11.516;2023-04-12T22:30:53;1.3;;;0.7;;
50165;SDS011;36071;48.140;11.516;2023-04-12T22:35:53;2.0;;;0.7;;
50165;SDS011;36071;48.140;11.516;2023-04-12T22:40:53;0.9;;;0.6;;
50165;SDS011;36071;48.140;11.516;2023-04-12T22:45:53;1.4;;;0.7;;
50165;SDS011;36071;48.140;11.516;2023-04-12T22:50:53;1.7;;;0.7;;
50165;SDS011;36071;48.140;11.516;2023-04-12T22:55:53;0.9;;;0.6;;
50165;SDS011;36071;48.140;11.516;2023-04-12T23:00:53;1.1;;;0.7;;
50165;SDS011;36071;48.140;11.516;2023-04-12T23:05:53;1.9;;;0.5;;
50165;SDS011;36071;48.140;11.516;2023-04-12T23:10:53;1.2;;;0.6;;
50165;SDS011;36071;48.140;11.516;2023-04-12T23:15:53;1.3;;;0.6;;
50165;SDS011;36071;48.140;11.516;2023-04-12T23:20:53;1.5;;;0.7;;
50165;SDS011;36071;48.140;11.516;2023-04-12T23:25:53;1.8;;;0.8;;
50165;SDS011;36071;48.140;11.516;2023-04-12T23:30:53;0.7;;;0.6;;
50165;SDS011;36071;48.140;11.516;2023-04-12T23:35:53;0.8;;;0.6;;
50165;SDS011;36071;48.140;11.516;2023-04-12T23:40:53;1.3;;;0.5;;
50165;SDS011;36071;48.140;11.516;2023-04-12T23:45:53;0.6;;;0.5;;
50165;SDS011;36071;48.140;11.516;2023-04-12T23:50:53;0.4;;;0.3;;
50165;SDS011;36071;48.140;11.516;2023-04-12T23:55:53;0.5;;;0.4;;
